Terminal Aerodrome Forecast
Issued by NWS Twin Cities, MN

Home | Current Version | Previous Version | Graphics & Text | Print | Product List | Glossary On
Versions: 1 2 3 4 5 6 7 8 9 10 11 12 13 14 15 16 17
982
FTUS43 KMPX 192330
TAFEAU
TAF
KEAU 192330Z 2000/2024 02011G19KT P6SM BKN030
     FM200300 03010KT P6SM BKN040
     FM201000 05006KT P6SM BKN120=

USA.gov is the U.S. government's official web portal to all federal, state and local government web resources and services.